Raccoon, Illinois
Current Conditions -  °F | °C
As of 12:55 PM on Monday 20 Oct 2014 (Local Time) from KENL Reporting Station
Clear Clear  
Wind Chill: 70°   Ceiling: Unl
Heat Index: 70°   Visibility: 10mi
Dew Point: 51°   Wind: 13mph
Humidity: 51%   Direction: 270°W
Pressure: 29.94"   Gusts: NA
Location:  38.5134°N, 89.1673°W
Report Text: KENL 201755Z AUTO 27011KT 10SM CLR 21/11 A2994 RMK AO2 T02120106 10212 20111
Loading
Personal Weather Stations






























Interactive Weather Map New forecast layout! Learn more

10-Day Weather Forecast

Advertisements
Track Severe Weather on mobile